Terminal Aerodrome Forecast
Issued by NWS

Home | Current Version | Previous Version | Text Only | Print | Product List | Glossary On
Versions: 1 2 3 4 5 6 7 8 9 10 11 12 13 14 15
000
FTUS41 KBOX 240531
TAFACK
TAF
KACK 240531Z 2406/2506 31020G30KT P6SM BKN100
     FM240800 31023G30KT P6SM SCT110
     FM241200 32025G36KT P6SM SCT250
     FM250200 32016G28KT P6SM SCT250=

USA.gov is the U.S. government's official web portal to all federal, state and local government web resources and services.